DHK399 KLAX-KLAS
Flight info
| Callsign | DHK399 |
|---|---|
| Flight time | 0h 45m |
| Altitude | 270 |
| Route | KLAX ORCKA5 MISEN DCT RNDRZ RNDRZ4 KLAS |
| Aircraft | B77F/H-SDE/L |
Departure
| Time | 2026-05-06 22:05 |
|---|---|
| Airport | Los Angeles International Airport (KLAX) |
Arrival
| Time | 2026-05-06 22:51 |
|---|---|
| Airport | Harry Reid International Airport (KLAS) |
| Time | Latitude | Longitude | Altitude | Speed | Heading |
|---|---|---|---|---|---|
| 2026-05-06 21:05 | 33.94504 | -118.43243 | 130 ft | 0 kts | 263° |
| 2026-05-06 21:42 | 33.94504 | -118.43239 | 130 ft | 3 kts | 263° |
| 2026-05-06 21:42 | 33.94506 | -118.43217 | 128 ft | 3 kts | 263° |
| 2026-05-06 21:43 | 33.94509 | -118.43194 | 125 ft | 3 kts | 263° |
| 2026-05-06 21:43 | 33.94511 | -118.43172 | 125 ft | 3 kts | 258° |
| 2026-05-06 21:43 | 33.94512 | -118.43148 | 125 ft | 3 kts | 295° |
| 2026-05-06 21:43 | 33.94500 | -118.43130 | 125 ft | 3 kts | 339° |
| 2026-05-06 21:44 | 33.94490 | -118.43127 | 125 ft | 0 kts | 353° |
| 2026-05-06 21:54 | 33.94498 | -118.43127 | 130 ft | 2 kts | 358° |
| 2026-05-06 21:55 | 33.94511 | -118.43125 | 127 ft | 2 kts | 5° |
| 2026-05-06 21:55 | 33.94528 | -118.43124 | 127 ft | 3 kts | 4° |
| 2026-05-06 21:55 | 33.94548 | -118.43121 | 128 ft | 3 kts | 5° |
| 2026-05-06 21:55 | 33.94570 | -118.43114 | 125 ft | 4 kts | 24° |
| 2026-05-06 21:56 | 33.94591 | -118.43085 | 127 ft | 5 kts | 62° |
| 2026-05-06 21:56 | 33.94603 | -118.43040 | 127 ft | 6 kts | 79° |
| 2026-05-06 21:56 | 33.94610 | -118.42989 | 127 ft | 6 kts | 81° |
| 2026-05-06 21:56 | 33.94615 | -118.42935 | 126 ft | 7 kts | 85° |
| 2026-05-06 21:57 | 33.94619 | -118.42879 | 126 ft | 7 kts | 84° |
| 2026-05-06 21:57 | 33.94624 | -118.42823 | 129 ft | 7 kts | 83° |
| 2026-05-06 21:57 | 33.94631 | -118.42759 | 126 ft | 9 kts | 83° |
| 2026-05-06 21:57 | 33.94639 | -118.42675 | 130 ft | 12 kts | 82° |
| 2026-05-06 21:58 | 33.94651 | -118.42568 | 130 ft | 14 kts | 82° |
| 2026-05-06 21:58 | 33.94662 | -118.42441 | 126 ft | 16 kts | 83° |
| 2026-05-06 21:58 | 33.94677 | -118.42296 | 128 ft | 18 kts | 83° |
| 2026-05-06 21:58 | 33.94694 | -118.42133 | 129 ft | 21 kts | 83° |
| 2026-05-06 21:59 | 33.94713 | -118.41952 | 130 ft | 23 kts | 83° |
| 2026-05-06 21:59 | 33.94733 | -118.41757 | 126 ft | 24 kts | 82° |
| 2026-05-06 21:59 | 33.94756 | -118.41548 | 127 ft | 26 kts | 83° |
| 2026-05-06 21:59 | 33.94791 | -118.41330 | 125 ft | 27 kts | 82° |
| 2026-05-06 22:00 | 33.94813 | -118.41110 | 127 ft | 27 kts | 84° |
| 2026-05-06 22:00 | 33.94836 | -118.40879 | 126 ft | 28 kts | 83° |
| 2026-05-06 22:00 | 33.94859 | -118.40644 | 130 ft | 28 kts | 83° |
| 2026-05-06 22:00 | 33.94884 | -118.40403 | 129 ft | 30 kts | 83° |
| 2026-05-06 22:01 | 33.94903 | -118.40224 | 126 ft | 14 kts | 82° |
| 2026-05-06 22:01 | 33.94915 | -118.40099 | 126 ft | 16 kts | 84° |
| 2026-05-06 22:01 | 33.94935 | -118.39957 | 128 ft | 18 kts | 70° |
| 2026-05-06 22:01 | 33.94942 | -118.39940 | 129 ft | 0 kts | 59° |
| 2026-05-06 22:03 | 33.94946 | -118.39935 | 127 ft | 2 kts | 49° |
| 2026-05-06 22:03 | 33.94970 | -118.39918 | 124 ft | 6 kts | 20° |
| 2026-05-06 22:03 | 33.95015 | -118.39929 | 127 ft | 8 kts | 332° |
| 2026-05-06 22:03 | 33.95033 | -118.39992 | 125 ft | 9 kts | 270° |
| 2026-05-06 22:04 | 33.95031 | -118.40048 | 130 ft | 0 kts | 261° |
| 2026-05-06 22:04 | 33.95026 | -118.40091 | 130 ft | 32 kts | 262° |
| 2026-05-06 22:05 | 33.94950 | -118.40809 | 126 ft | 138 kts | 262° |
| 2026-05-06 22:05 | 33.94782 | -118.42304 | 244 ft | 209 kts | 262° |
| 2026-05-06 22:05 | 33.94604 | -118.44122 | 1093 ft | 225 kts | 263° |
| 2026-05-06 22:05 | 33.94442 | -118.45860 | 2952 ft | 203 kts | 264° |
| 2026-05-06 22:06 | 33.94259 | -118.47602 | 3967 ft | 215 kts | 267° |
| 2026-05-06 22:06 | 33.94111 | -118.49473 | 4752 ft | 237 kts | 270° |
| 2026-05-06 22:06 | 33.94034 | -118.50885 | 5009 ft | 265 kts | 270° |
| 2026-05-06 22:06 | 33.93906 | -118.53116 | 4978 ft | 273 kts | 269° |
| 2026-05-06 22:07 | 33.93732 | -118.55384 | 4992 ft | 273 kts | 266° |
| 2026-05-06 22:07 | 33.93526 | -118.57680 | 4996 ft | 277 kts | 266° |
| 2026-05-06 22:07 | 33.93343 | -118.59999 | 5169 ft | 279 kts | 266° |
| 2026-05-06 22:07 | 33.93137 | -118.62343 | 5970 ft | 284 kts | 266° |
| 2026-05-06 22:08 | 33.92938 | -118.64714 | 6932 ft | 286 kts | 262° |
| 2026-05-06 22:08 | 33.92206 | -118.66982 | 7566 ft | 298 kts | 231° |
| 2026-05-06 22:08 | 33.90581 | -118.68440 | 8525 ft | 299 kts | 199° |
| 2026-05-06 22:08 | 33.88535 | -118.68753 | 9377 ft | 299 kts | 169° |
| 2026-05-06 22:09 | 33.86557 | -118.68008 | 10207 ft | 298 kts | 147° |
| 2026-05-06 22:09 | 33.84914 | -118.66448 | 10669 ft | 311 kts | 126° |
| 2026-05-06 22:09 | 33.83799 | -118.64125 | 10872 ft | 332 kts | 105° |
| 2026-05-06 22:09 | 33.83490 | -118.61308 | 11122 ft | 350 kts | 81° |
| 2026-05-06 22:10 | 33.84215 | -118.58544 | 11753 ft | 354 kts | 60° |
| 2026-05-06 22:10 | 33.85631 | -118.56026 | 12410 ft | 364 kts | 52° |
| 2026-05-06 22:10 | 33.87184 | -118.53638 | 13285 ft | 368 kts | 51° |
| 2026-05-06 22:10 | 33.88745 | -118.51175 | 14204 ft | 372 kts | 53° |
| 2026-05-06 22:11 | 33.90259 | -118.48629 | 15058 ft | 375 kts | 54° |
| 2026-05-06 22:11 | 33.91745 | -118.46028 | 15920 ft | 379 kts | 54° |
| 2026-05-06 22:11 | 33.93231 | -118.43399 | 16733 ft | 382 kts | 54° |
| 2026-05-06 22:11 | 33.94740 | -118.40732 | 17549 ft | 387 kts | 54° |
| 2026-05-06 22:12 | 33.96265 | -118.38043 | 18352 ft | 391 kts | 54° |
| 2026-05-06 22:12 | 33.97808 | -118.35324 | 18927 ft | 397 kts | 54° |
| 2026-05-06 22:12 | 33.99366 | -118.32576 | 18962 ft | 397 kts | 54° |
| 2026-05-06 22:12 | 34.00922 | -118.29827 | 18978 ft | 397 kts | 54° |
| 2026-05-06 22:13 | 34.02489 | -118.27064 | 19417 ft | 402 kts | 54° |
| 2026-05-06 22:13 | 34.04078 | -118.24263 | 20124 ft | 405 kts | 54° |
| 2026-05-06 22:13 | 34.05650 | -118.21489 | 20829 ft | 407 kts | 54° |
| 2026-05-06 22:13 | 34.07252 | -118.18659 | 21501 ft | 410 kts | 54° |
| 2026-05-06 22:14 | 34.08875 | -118.15789 | 22180 ft | 414 kts | 54° |
| 2026-05-06 22:14 | 34.10508 | -118.12901 | 22828 ft | 418 kts | 54° |
| 2026-05-06 22:14 | 34.12149 | -118.09996 | 23483 ft | 422 kts | 54° |
| 2026-05-06 22:14 | 34.13815 | -118.07044 | 24064 ft | 425 kts | 54° |
| 2026-05-06 22:15 | 34.15479 | -118.04092 | 24685 ft | 426 kts | 54° |
| 2026-05-06 22:15 | 34.17132 | -118.01156 | 25293 ft | 427 kts | 54° |
| 2026-05-06 22:15 | 34.18812 | -117.98172 | 25850 ft | 430 kts | 54° |
| 2026-05-06 22:15 | 34.20497 | -117.95174 | 26349 ft | 434 kts | 54° |
| 2026-05-06 22:16 | 34.22188 | -117.92165 | 26988 ft | 432 kts | 54° |
| 2026-05-06 22:16 | 34.23865 | -117.89174 | 27880 ft | 427 kts | 54° |
| 2026-05-06 22:16 | 34.25525 | -117.86212 | 28729 ft | 423 kts | 54° |
| 2026-05-06 22:16 | 34.27180 | -117.83258 | 29097 ft | 424 kts | 54° |
| 2026-05-06 22:17 | 34.30482 | -117.77359 | 29071 ft | 423 kts | 54° |
| 2026-05-06 22:17 | 34.33780 | -117.71456 | 29066 ft | 423 kts | 54° |
| 2026-05-06 22:18 | 34.37122 | -117.65597 | 29068 ft | 423 kts | 53° |
| 2026-05-06 22:18 | 34.40593 | -117.59837 | 29060 ft | 423 kts | 52° |
| 2026-05-06 22:19 | 34.44065 | -117.54075 | 29033 ft | 424 kts | 52° |
| 2026-05-06 22:19 | 34.47523 | -117.48291 | 29099 ft | 423 kts | 53° |
| 2026-05-06 22:20 | 34.50964 | -117.42506 | 29118 ft | 423 kts | 53° |
| 2026-05-06 22:20 | 34.54372 | -117.36763 | 29116 ft | 421 kts | 53° |
| 2026-05-06 22:21 | 34.57792 | -117.30992 | 29112 ft | 420 kts | 53° |
| 2026-05-06 22:21 | 34.61200 | -117.25231 | 29101 ft | 420 kts | 53° |
| 2026-05-06 22:22 | 34.64603 | -117.19469 | 29085 ft | 420 kts | 53° |
| 2026-05-06 22:22 | 34.68006 | -117.13701 | 29019 ft | 420 kts | 53° |
| 2026-05-06 22:23 | 34.71387 | -117.07957 | 29028 ft | 421 kts | 53° |
| 2026-05-06 22:23 | 34.74792 | -117.02165 | 29023 ft | 422 kts | 53° |
| 2026-05-06 22:24 | 34.78206 | -116.96346 | 29031 ft | 422 kts | 53° |
| 2026-05-06 22:24 | 34.81608 | -116.90540 | 29048 ft | 422 kts | 53° |
| 2026-05-06 22:25 | 34.84979 | -116.84775 | 29045 ft | 410 kts | 53° |
| 2026-05-06 22:25 | 34.88242 | -116.79188 | 29039 ft | 406 kts | 53° |
| 2026-05-06 22:26 | 34.91514 | -116.73578 | 29048 ft | 407 kts | 53° |
| 2026-05-06 22:26 | 34.94761 | -116.67897 | 29040 ft | 408 kts | 54° |
| 2026-05-06 22:27 | 34.97963 | -116.62195 | 29027 ft | 409 kts | 54° |
| 2026-05-06 22:27 | 35.01179 | -116.56472 | 29016 ft | 409 kts | 54° |
| 2026-05-06 22:28 | 35.04395 | -116.50749 | 28998 ft | 409 kts | 54° |
| 2026-05-06 22:28 | 35.07615 | -116.45016 | 28988 ft | 408 kts | 54° |
| 2026-05-06 22:29 | 35.10911 | -116.39376 | 28985 ft | 407 kts | 49° |
| 2026-05-06 22:29 | 35.14729 | -116.34338 | 28989 ft | 407 kts | 46° |
| 2026-05-06 22:30 | 35.18541 | -116.29227 | 28982 ft | 406 kts | 46° |
| 2026-05-06 22:30 | 35.22315 | -116.24132 | 28804 ft | 398 kts | 46° |
| 2026-05-06 22:31 | 35.26045 | -116.19096 | 28294 ft | 400 kts | 46° |
| 2026-05-06 22:31 | 35.27917 | -116.16569 | 27667 ft | 400 kts | 46° |
| 2026-05-06 22:31 | 35.29783 | -116.14048 | 27094 ft | 398 kts | 46° |
| 2026-05-06 22:32 | 35.31614 | -116.11574 | 26602 ft | 395 kts | 46° |
| 2026-05-06 22:32 | 35.33467 | -116.09066 | 26068 ft | 385 kts | 46° |
| 2026-05-06 22:32 | 35.35213 | -116.06702 | 25088 ft | 375 kts | 46° |
| 2026-05-06 22:32 | 35.36981 | -116.04307 | 24052 ft | 383 kts | 46° |
| 2026-05-06 22:33 | 35.38782 | -116.01869 | 23461 ft | 385 kts | 46° |
| 2026-05-06 22:33 | 35.40564 | -115.99451 | 23052 ft | 380 kts | 46° |
| 2026-05-06 22:33 | 35.42322 | -115.97064 | 22651 ft | 375 kts | 46° |
| 2026-05-06 22:33 | 35.44065 | -115.94696 | 22171 ft | 372 kts | 46° |
| 2026-05-06 22:34 | 35.45801 | -115.92335 | 21615 ft | 372 kts | 46° |
| 2026-05-06 22:34 | 35.47530 | -115.89984 | 21125 ft | 370 kts | 46° |
| 2026-05-06 22:34 | 35.49252 | -115.87641 | 20700 ft | 368 kts | 46° |
| 2026-05-06 22:34 | 35.50960 | -115.85314 | 20268 ft | 366 kts | 46° |
| 2026-05-06 22:35 | 35.52637 | -115.83027 | 19812 ft | 364 kts | 47° |
| 2026-05-06 22:35 | 35.54326 | -115.80724 | 19374 ft | 362 kts | 47° |
| 2026-05-06 22:35 | 35.56010 | -115.78425 | 18929 ft | 360 kts | 47° |
| 2026-05-06 22:35 | 35.57681 | -115.76143 | 18494 ft | 359 kts | 47° |
| 2026-05-06 22:36 | 35.59350 | -115.73862 | 18033 ft | 357 kts | 47° |
| 2026-05-06 22:36 | 35.61010 | -115.71609 | 17569 ft | 354 kts | 47° |
| 2026-05-06 22:36 | 35.62663 | -115.69374 | 17104 ft | 352 kts | 47° |
| 2026-05-06 22:36 | 35.64285 | -115.67179 | 16681 ft | 349 kts | 47° |
| 2026-05-06 22:37 | 35.65911 | -115.64978 | 16234 ft | 347 kts | 47° |
| 2026-05-06 22:37 | 35.67545 | -115.62760 | 15826 ft | 344 kts | 47° |
| 2026-05-06 22:37 | 35.69129 | -115.60609 | 15424 ft | 341 kts | 47° |
| 2026-05-06 22:37 | 35.70716 | -115.58453 | 14983 ft | 339 kts | 47° |
| 2026-05-06 22:38 | 35.72293 | -115.56317 | 14545 ft | 335 kts | 46° |
| 2026-05-06 22:38 | 35.74051 | -115.54476 | 13886 ft | 333 kts | 31° |
| 2026-05-06 22:38 | 35.76111 | -115.53154 | 13191 ft | 334 kts | 27° |
| 2026-05-06 22:38 | 35.78173 | -115.51824 | 12704 ft | 333 kts | 29° |
| 2026-05-06 22:39 | 35.80189 | -115.50429 | 12540 ft | 334 kts | 30° |
| 2026-05-06 22:39 | 35.82210 | -115.49012 | 12539 ft | 335 kts | 30° |
| 2026-05-06 22:39 | 35.84238 | -115.47585 | 12507 ft | 335 kts | 29° |
| 2026-05-06 22:39 | 35.86259 | -115.46164 | 12503 ft | 333 kts | 29° |
| 2026-05-06 22:40 | 35.88273 | -115.44750 | 12505 ft | 333 kts | 29° |
| 2026-05-06 22:40 | 35.90259 | -115.43355 | 12507 ft | 332 kts | 29° |
| 2026-05-06 22:40 | 35.92265 | -115.41950 | 12405 ft | 331 kts | 29° |
| 2026-05-06 22:40 | 35.94272 | -115.40551 | 12019 ft | 331 kts | 29° |
| 2026-05-06 22:41 | 35.98285 | -115.37750 | 11202 ft | 332 kts | 30° |
| 2026-05-06 22:41 | 36.00126 | -115.36015 | 11010 ft | 338 kts | 50° |
| 2026-05-06 22:41 | 36.01173 | -115.33457 | 11013 ft | 340 kts | 74° |
| 2026-05-06 22:42 | 36.01420 | -115.30513 | 10713 ft | 342 kts | 89° |
| 2026-05-06 22:42 | 36.01229 | -115.27680 | 10537 ft | 328 kts | 91° |
| 2026-05-06 22:42 | 36.01053 | -115.24929 | 10480 ft | 315 kts | 90° |
| 2026-05-06 22:42 | 36.00895 | -115.22288 | 10347 ft | 304 kts | 90° |
| 2026-05-06 22:43 | 36.00743 | -115.19686 | 9976 ft | 301 kts | 90° |
| 2026-05-06 22:43 | 36.00594 | -115.17130 | 9717 ft | 294 kts | 90° |
| 2026-05-06 22:43 | 36.00452 | -115.14675 | 9631 ft | 281 kts | 90° |
| 2026-05-06 22:43 | 36.00314 | -115.12323 | 9522 ft | 268 kts | 90° |
| 2026-05-06 22:44 | 36.00183 | -115.10074 | 9336 ft | 258 kts | 90° |
| 2026-05-06 22:44 | 36.00056 | -115.07826 | 8764 ft | 265 kts | 90° |
| 2026-05-06 22:44 | 35.99930 | -115.05570 | 8511 ft | 258 kts | 89° |
| 2026-05-06 22:44 | 35.99893 | -115.03388 | 8303 ft | 250 kts | 87° |
| 2026-05-06 22:45 | 35.99896 | -115.01294 | 8042 ft | 243 kts | 86° |
| 2026-05-06 22:45 | 35.99952 | -114.99264 | 7850 ft | 232 kts | 84° |
| 2026-05-06 22:45 | 36.00040 | -114.97258 | 7358 ft | 234 kts | 84° |
| 2026-05-06 22:45 | 36.00121 | -114.95242 | 6941 ft | 236 kts | 85° |
| 2026-05-06 22:46 | 36.00176 | -114.93236 | 6573 ft | 231 kts | 85° |
| 2026-05-06 22:46 | 36.00480 | -114.91326 | 5957 ft | 227 kts | 59° |
| 2026-05-06 22:46 | 36.01637 | -114.90109 | 5523 ft | 217 kts | 16° |
| 2026-05-06 22:46 | 36.03103 | -114.90054 | 5353 ft | 216 kts | 349° |
| 2026-05-06 22:47 | 36.04570 | -114.90736 | 5137 ft | 232 kts | 328° |
| 2026-05-06 22:47 | 36.05645 | -114.92179 | 5006 ft | 227 kts | 298° |
| 2026-05-06 22:47 | 36.06024 | -114.93953 | 4960 ft | 206 kts | 280° |
| 2026-05-06 22:47 | 36.06287 | -114.95616 | 4931 ft | 188 kts | 284° |
| 2026-05-06 22:48 | 36.06572 | -114.97195 | 4990 ft | 190 kts | 284° |
| 2026-05-06 22:48 | 36.06853 | -114.98766 | 4996 ft | 184 kts | 285° |
| 2026-05-06 22:48 | 36.07129 | -115.00316 | 4999 ft | 185 kts | 285° |
| 2026-05-06 22:48 | 36.07333 | -115.01899 | 4981 ft | 189 kts | 277° |
| 2026-05-06 22:49 | 36.07369 | -115.03536 | 5000 ft | 191 kts | 272° |
| 2026-05-06 22:49 | 36.07352 | -115.05221 | 4659 ft | 197 kts | 269° |
| 2026-05-06 22:49 | 36.07287 | -115.06897 | 4188 ft | 193 kts | 267° |
| 2026-05-06 22:49 | 36.07216 | -115.08552 | 3515 ft | 194 kts | 269° |
| 2026-05-06 22:50 | 36.07269 | -115.10227 | 2788 ft | 194 kts | 275° |
| 2026-05-06 22:50 | 36.07361 | -115.11849 | 2214 ft | 182 kts | 270° |
| 2026-05-06 22:50 | 36.07362 | -115.13396 | 2154 ft | 184 kts | 269° |
| 2026-05-06 22:50 | 36.07363 | -115.14809 | 2129 ft | 114 kts | 271° |
| 2026-05-06 22:51 | 36.07370 | -115.15442 | 2125 ft | 54 kts | 268° |
| 2026-05-06 22:51 | 36.07359 | -115.15887 | 2131 ft | 44 kts | 268° |
| 2026-05-06 22:51 | 36.07409 | -115.16118 | 2130 ft | 0 kts | 349° |
| 2026-05-06 22:51 | 36.07412 | -115.16119 | 2130 ft | 1 kts | 349° |
| 2026-05-06 22:52 | 36.07419 | -115.16120 | 2130 ft | 1 kts | 349° |
| 2026-05-06 22:52 | 36.07430 | -115.16123 | 2130 ft | 2 kts | 352° |
| 2026-05-06 22:52 | 36.07443 | -115.16124 | 2130 ft | 2 kts | 356° |
| 2026-05-06 22:52 | 36.07468 | -115.16126 | 2130 ft | 8 kts | 358° |
| 2026-05-06 22:53 | 36.07585 | -115.16128 | 2130 ft | 18 kts | 359° |
| 2026-05-06 22:53 | 36.07666 | -115.16127 | 2126 ft | 17 kts | 1° |
| 2026-05-06 22:53 | 36.07782 | -115.16108 | 2128 ft | 18 kts | 41° |
| 2026-05-06 22:53 | 36.07801 | -115.15986 | 2126 ft | 7 kts | 91° |
| 2026-05-06 22:54 | 36.07800 | -115.15914 | 2128 ft | 10 kts | 89° |
| 2026-05-06 22:54 | 36.07801 | -115.15865 | 2129 ft | 2 kts | 89° |
| 2026-05-06 22:54 | 36.07801 | -115.15828 | 2129 ft | 7 kts | 89° |
| 2026-05-06 22:54 | 36.07802 | -115.15744 | 2128 ft | 8 kts | 89° |
| 2026-05-06 22:55 | 36.07802 | -115.15664 | 2128 ft | 11 kts | 90° |
| 2026-05-06 22:55 | 36.07803 | -115.15597 | 2129 ft | 6 kts | 88° |
| 2026-05-06 22:55 | 36.07803 | -115.15568 | 2130 ft | 3 kts | 89° |
| 2026-05-06 22:55 | 36.07804 | -115.15513 | 2131 ft | 7 kts | 89° |
| 2026-05-06 22:56 | 36.07804 | -115.15464 | 2132 ft | 6 kts | 91° |
| 2026-05-06 22:56 | 36.07803 | -115.15375 | 2133 ft | 13 kts | 91° |
| 2026-05-06 22:56 | 36.07802 | -115.15254 | 2132 ft | 14 kts | 91° |
| 2026-05-06 22:56 | 36.07801 | -115.15097 | 2130 ft | 13 kts | 92° |
| 2026-05-06 22:57 | 36.07796 | -115.15001 | 2130 ft | 8 kts | 94° |
| 2026-05-06 22:57 | 36.07791 | -115.14928 | 2130 ft | 9 kts | 94° |
| 2026-05-06 22:57 | 36.07785 | -115.14810 | 2128 ft | 19 kts | 94° |
| 2026-05-06 22:57 | 36.07775 | -115.14657 | 2127 ft | 8 kts | 96° |
| 2026-05-06 22:58 | 36.07769 | -115.14573 | 2128 ft | 6 kts | 95° |
| 2026-05-06 22:58 | 36.07763 | -115.14494 | 2125 ft | 13 kts | 95° |
| 2026-05-06 22:58 | 36.07760 | -115.14449 | 2129 ft | 6 kts | 94° |
| 2026-05-06 22:58 | 36.07756 | -115.14372 | 2126 ft | 11 kts | 95° |
| 2026-05-06 22:59 | 36.07753 | -115.14287 | 2125 ft | 10 kts | 90° |
| 2026-05-06 22:59 | 36.07754 | -115.14167 | 2124 ft | 15 kts | 89° |
| 2026-05-06 22:59 | 36.07753 | -115.14037 | 2126 ft | 17 kts | 91° |
| 2026-05-06 22:59 | 36.07749 | -115.13888 | 2129 ft | 15 kts | 92° |
| 2026-05-06 23:00 | 36.07752 | -115.13733 | 2129 ft | 22 kts | 89° |
| 2026-05-06 23:00 | 36.07755 | -115.13553 | 2130 ft | 20 kts | 89° |
| 2026-05-06 23:00 | 36.07756 | -115.13382 | 2131 ft | 22 kts | 90° |
| 2026-05-06 23:00 | 36.07754 | -115.13225 | 2129 ft | 10 kts | 90° |
| 2026-05-06 23:01 | 36.07755 | -115.13091 | 2127 ft | 19 kts | 90° |
| 2026-05-06 23:01 | 36.07754 | -115.12887 | 2126 ft | 28 kts | 90° |
| 2026-05-06 23:01 | 36.07754 | -115.12726 | 2123 ft | 17 kts | 90° |
| 2026-05-06 23:01 | 36.07775 | -115.12648 | 2123 ft | 8 kts | 32° |
| 2026-05-06 23:02 | 36.07856 | -115.12632 | 2118 ft | 12 kts | 358° |
| 2026-05-06 23:02 | 36.07948 | -115.12635 | 2114 ft | 13 kts | 359° |
| 2026-05-06 23:02 | 36.07983 | -115.12665 | 2113 ft | 7 kts | 272° |
| 2026-05-06 23:02 | 36.07982 | -115.12710 | 2113 ft | 0 kts | 270° |
| 2026-05-06 23:06 | 36.07982 | -115.12715 | 2113 ft | 0 kts | 270° |
| 2026-05-06 23:06 | 36.07982 | -115.12720 | 2113 ft | 0 kts | 270° |